NCAR-RAP Real-Time Weather Data

Output produced by METARs form (17 October 2018  16:35 UTC)
found at http://weather.rap.ucar.edu/surface/
 
RJSA 171200Z 20005KT 9999 FEW030 SCT045 05/04 Q1015
RJSA 171100Z 19005KT 9999 FEW030 BKN040 08/05 Q1015
RJSA 171000Z 20004KT 9999 FEW030 BKN040 08/05 Q1015
RJSA 170900Z 21003KT 9999 FEW030 BKN040 08/06 Q1015
RJSA 170800Z 26003KT 9999 FEW030 SCT040 BKN050 08/05 Q1014
RJSA 170700Z 27005KT 240V310 9999 FEW030 SCT045 11/04 Q1013
RJSA 170600Z 28008KT 9999 FEW030 BKN040 12/04 Q1013
RJSA 170500Z 30006KT 260V330 9999 FEW030 BKN040 12/04 Q1012
RJSA 170400Z 29005KT 250V320 9999 FEW030 BKN040 12/04 Q1012
RJSA 170300Z 28007KT 250V320 9999 FEW030 BKN040 14/05 Q1013
RJSA 170200Z 30006KT 240V350 9999 FEW030 SCT040 BKN/// 12/04 Q1013
RJSA 170100Z 33003KT 300V010 9999 FEW030 SCT040 BKN/// 12/04 Q1013
RJSA 170000Z 34004KT 310V050 9999 FEW030 SCT040 BKN/// 11/04 Q1013
RJSA 162300Z 31003KT 9999 FEW030 BKN150 11/05 Q1013
RJSA 162200Z VRB01KT 9999 FEW030 SCT040 BKN160 09/06 Q1012
RJSA 162140Z VRB02KT 9999 FEW030 BKN040 09/08 Q1012 RMK 1CU030 7CU040 A2990
RJSA 161200Z 22005KT 9999 FEW040 BKN/// 06/05 Q1013
RJSA 161100Z 22004KT 9999 FEW030 BKN/// 09/07 Q1013
RJSA 161000Z 20005KT 9999 FEW030 BKN/// 09/07 Q1013
RJSA 160900Z 20004KT 9999 FEW030 BKN/// 09/07 Q1013
RJSA 160800Z 22005KT 190V250 9999 FEW030 BKN/// 11/09 Q1014
RJSA 160700Z 27006KT 9999 FEW020 SCT040 BKN/// 14/08 Q1013
RJSA 160600Z 27005KT 230V330 9999 VCSH FEW010 SCT040 BKN050 14/10 Q1013
RJSA 160500Z 26006KT 230V290 9999 -SHRA FEW010 SCT020 BKN030 14/11 Q1013
RJSA 160445Z 27006KT 240V320 8000 SHRA FEW010 SCT030 BKN050 14/11 Q1013 RMK 1ST010 3CU030 6CU050 A2991
RJSA 160400Z 28009KT 250V320 9999 -SHRA FEW020 SCT030 BKN060 15/09 Q1012
RJSA 160300Z 19009KT 9999 FEW020 SCT030 BKN050 17/10 Q1013
RJSA 160200Z 24009KT 9999 FEW030 SCT040 BKN070 16/10 Q1014
RJSA 160100Z 24007KT 200V270 9999 FEW030 16/11 Q1014
RJSA 160000Z 21008KT 9999 FEW020 SCT050 16/11 Q1015
RJSA 152300Z 21005KT 9999 FEW020 SCT040 14/10 Q1015
RJSA 152200Z 18007KT 9999 FEW020 SCT040 11/10 Q1015
RJSA 152140Z 18009KT 9999 VCSH FEW010 SCT020 BKN030 11/10 Q1015 RMK 1ST010 3CU020 5CU030 A2999
RJSA 151200Z 20005KT CAVOK 06/06 Q1016
RJSA 151100Z 21003KT 9999 FEW030 SCT070 08/07 Q1017
RJSA 151000Z 21006KT 9999 FEW030 SCT070 08/07 Q1017
RJSA 150900Z 18006KT 9999 FEW040 BKN/// 10/09 Q1017
RJSA 150800Z 15006KT 9999 FEW040 13/09 Q1017
RJSA 150700Z VRB02KT 9999 FEW040 SCT050 16/08 Q1017
RJSA 150600Z 25004KT 190V280 9999 FEW030 BKN050 BKN/// 16/07 Q1017
RJSA 150500Z 23008KT 9999 FEW030 SCT050 BKN/// 16/07 Q1017